Conception — WYR8548 — position and weather

sailwx.info

Track history (hours):
 
Tides and Currents Weather Stations Pressure Air Temp Water Temp Dewpoint Dewpoint Depression Visibility Wind Speed Wind Dir Waves Ship Positions

Conception

Owner: TRUTH AQUATICS, SANTA BARBARA, CA. More information available from US FCC via Universal Licensing System and Coast Guard Vessel Documentation Center.

Last reported at 2017-Nov-20 00:23 UTC. Time now 2017-Nov-21 06:09 UTC.
Position N 34°23' W 119°41'.

Length 24 m.

Type: Diving. MMSI: 367098480.

Date/timePositionNaut miles runAvg speedWind from/ knotsBaromVisibWave heightAir tempDewpointWater temp
2017-Nov-20 00:23N 34°23' W 119°41'4 9.7
2017-Nov-19 23:59N 34°20' W 119°42'5 9.7
2017-Nov-19 23:28N 34°15' W 119°44'5 9.6
2017-Nov-19 22:56N 34°10' W 119°46'4 9.5
2017-Nov-19 22:30N 34°06' W 119°48'3 0.5
2017-Nov-19 16:04N 34°03' W 119°49'0 0.0
2017-Nov-19 15:37N 34°03' W 119°49'0 0.0
2017-Nov-19 15:15N 34°03' W 119°49'1 4.0
2017-Nov-19 14:59N 34°04' W 119°48'2 1.4
2017-Nov-19 13:26N 34°03' W 119°45'0 0.0
2017-Nov-19 12:08N 34°03' W 119°45'0 0.0
2017-Nov-19 11:59N 34°03' W 119°45'0 0.0
2017-Nov-19 11:23N 34°03' W 119°45'0 0.0
2017-Nov-19 10:59N 34°03' W 119°45'0 0.0
2017-Nov-18 22:25N 34°03' W 119°45'3 4.5
2017-Nov-18 21:47N 34°02' W 119°42'0 0.0
2017-Nov-18 20:34N 34°02' W 119°42'0 0.0
2017-Nov-18 20:31N 34°02' W 119°42'0 0.0
2017-Nov-18 19:46N 34°02' W 119°42'0 0.0
2017-Nov-18 18:12N 34°02' W 119°42'0 0.0
2017-Nov-18 17:57N 34°02' W 119°42'0 0.0
2017-Nov-18 17:28N 34°02' W 119°42'0 0.0
2017-Nov-18 16:54N 34°02' W 119°42'0 0.0
2017-Nov-18 16:27N 34°02' W 119°42'0 0.0
2017-Nov-18 16:00N 34°02' W 119°42'2 3.3
2017-Nov-18 15:28N 34°03' W 119°44'4 7.6
2017-Nov-18 14:58N 34°03' W 119°49'2 5.4
2017-Nov-18 14:30N 34°05' W 119°51'5 7.7
2017-Nov-18 13:54N 34°10' W 119°50'5 9.2
2017-Nov-18 13:23N 34°14' W 119°46'4 9.8
2017-Nov-18 13:00N 34°17' W 119°43'5 9.7
2017-Nov-18 12:30N 34°21' W 119°41'3 0.5
2017-Nov-18 05:07N 34°24' W 119°41'0 0.0
2017-Nov-18 04:43N 34°24' W 119°41'0 0.0
2017-Nov-18 04:19N 34°24' W 119°41'0 0.0
2017-Nov-17 23:34N 34°24' W 119°41'0 0.0
2017-Nov-17 23:25N 34°24' W 119°41'0 0.0
2017-Nov-17 21:46N 34°24' W 119°41'0 0.0
2017-Nov-17 12:13N 34°24' W 119°41'0 0.0
2017-Nov-17 10:28N 34°24' W 119°41'0 0.0
2017-Nov-17 05:52N 34°24' W 119°41'0 0.0
2017-Nov-17 03:31N 34°24' W 119°41'0 0.0
2017-Nov-17 00:46N 34°24' W 119°41'0 0.0
2017-Nov-16 23:13N 34°24' W 119°41'0 0.0
2017-Nov-16 19:49N 34°24' W 119°41'0 0.0
2017-Nov-16 19:22N 34°24' W 119°41'0 0.0
2017-Nov-16 17:58N 34°24' W 119°41'0 0.0
2017-Nov-16 17:16N 34°24' W 119°41'0 0.0
2017-Nov-16 16:52N 34°24' W 119°41'0 0.0
2017-Nov-16 16:25N 34°24' W 119°41'0 0.0
2017-Nov-16 15:46N 34°24' W 119°41'0 0.0
2017-Nov-16 15:28N 34°24' W 119°41'0 0.0
2017-Nov-16 13:22N 34°24' W 119°41'0 0.0
2017-Nov-16 11:55N 34°24' W 119°41'0 0.0
2017-Nov-16 11:31N 34°24' W 119°41'0 0.0
2017-Nov-16 08:25N 34°24' W 119°41'0 0.0
2017-Nov-16 07:39N 34°24' W 119°41'0 0.0
2017-Nov-16 07:18N 34°24' W 119°41'0 0.0
2017-Nov-16 06:36N 34°24' W 119°41'0 0.0
2017-Nov-16 06:18N 34°24' W 119°41'0 0.0
2017-Nov-16 05:55N 34°24' W 119°41'0 0.0
2017-Nov-16 05:24N 34°24' W 119°41'0 0.0
2017-Nov-16 04:54N 34°24' W 119°41'0 0.0
2017-Nov-16 03:00N 34°24' W 119°41'0 0.0
2017-Nov-15 23:45N 34°24' W 119°41'0 0.0
2017-Nov-15 23:24N 34°24' W 119°41'0 0.0
2017-Nov-15 22:54N 34°24' W 119°41'0 0.0
2017-Nov-15 21:45N 34°24' W 119°41'0 0.0
2017-Nov-15 21:21N 34°24' W 119°41'0 0.0
2017-Nov-15 20:54N 34°24' W 119°41'0 0.0
2017-Nov-15 20:27N 34°24' W 119°41'0 0.0
2017-Nov-15 18:54N 34°24' W 119°41'0 0.0
2017-Nov-15 15:21N 34°24' W 119°41'0 0.0
2017-Nov-15 14:57N 34°24' W 119°41'0 0.0
2017-Nov-15 12:03N 34°24' W 119°41'0 0.0
2017-Nov-15 12:00N 34°24' W 119°41'0 0.0
2017-Nov-15 11:15N 34°24' W 119°41'0 0.0
2017-Nov-15 11:00N 34°24' W 119°41'0 0.0
2017-Nov-15 10:30N 34°24' W 119°41'0 0.0
2017-Nov-15 09:54N 34°24' W 119°41'0 0.0
2017-Nov-15 09:30N 34°24' W 119°41'0 0.0
2017-Nov-15 07:57N 34°24' W 119°41'0 0.0
2017-Nov-15 07:30N 34°24' W 119°41'0 0.0
2017-Nov-15 06:57N 34°24' W 119°41'0 0.0
2017-Nov-14 21:27N 34°24' W 119°41'0 0.0
2017-Nov-14 20:42N 34°24' W 119°41'0 0.0
2017-Nov-14 16:45N 34°24' W 119°41'0 0.0
2017-Nov-14 10:42N 34°24' W 119°41'0 0.0
2017-Nov-14 02:39N 34°24' W 119°41'0 0.0
2017-Nov-13 23:33N 34°24' W 119°41'0 0.0
2017-Nov-13 23:09N 34°24' W 119°41'0 0.0
2017-Nov-13 21:36N 34°24' W 119°41'0 0.0
2017-Nov-13 01:21N 34°24' W 119°41'0 0.0
2017-Nov-13 00:51N 34°24' W 119°41'8 6.7
2017-Nov-12 23:42N 34°17' W 119°42'210.7
2017-Nov-12 23:29N 34°14' W 119°43'610.8
2017-Nov-12 22:57N 34°09' W 119°44'6 8.6
2017-Nov-12 22:17N 34°03' W 119°45'1 5.0
2017-Nov-12 22:00N 34°03' W 119°44'2 4.4
2017-Nov-12 21:30N 34°02' W 119°41'0 0.5
2017-Nov-12 20:58N 34°01' W 119°41'0 0.0
2017-Nov-12 20:28N 34°01' W 119°41'0 0.0
2017-Nov-12 19:46N 34°01' W 119°41'0 0.0
2017-Nov-12 19:28N 34°01' W 119°41'0 0.0
2017-Nov-12 18:55N 34°01' W 119°41'0 0.0
2017-Nov-12 18:28N 34°01' W 119°41'0 0.0
2017-Nov-12 17:52N 34°01' W 119°41'0 0.0
2017-Nov-12 17:28N 34°01' W 119°41'0 0.0
2017-Nov-12 16:55N 34°01' W 119°41'0 0.0
2017-Nov-12 16:25N 34°01' W 119°41'0 0.0
2017-Nov-12 16:00N 34°01' W 119°41'1 2.4
2017-Nov-12 15:30N 34°02' W 119°42'5 9.6
2017-Nov-12 15:00N 34°04' W 119°48'510.5
2017-Nov-12 14:30N 34°05' W 119°54'510.3
2017-Nov-12 14:01N 34°04' W 120°00'510.6
2017-Nov-12 13:30N 34°04' W 120°06'510.2
2017-Nov-12 13:00N 34°04' W 120°13'510.2
2017-Nov-12 12:30N 34°04' W 120°19'2 4.0
2017-Nov-12 11:57N 34°03' W 120°21'0 0.1
2017-Nov-12 11:27N 34°03' W 120°21'0 0.1
2017-Nov-12 10:51N 34°03' W 120°21'0 0.1
2017-Nov-12 10:30N 34°03' W 120°21'0 0.0
2017-Nov-12 10:00N 34°03' W 120°21'0 0.0
2017-Nov-12 09:27N 34°03' W 120°21'0 0.0
2017-Nov-12 09:00N 34°03' W 120°21'0 0.1
2017-Nov-12 08:30N 34°03' W 120°21'0 0.0
2017-Nov-12 07:54N 34°03' W 120°21'0 0.1
2017-Nov-12 07:30N 34°03' W 120°21'0 0.0
2017-Nov-12 06:57N 34°03' W 120°21'0 0.0
2017-Nov-12 06:30N 34°03' W 120°21'0 0.1
2017-Nov-12 05:54N 34°03' W 120°21'0 0.1
2017-Nov-12 05:27N 34°03' W 120°21'0 0.0
2017-Nov-12 05:00N 34°03' W 120°21'0 0.0
2017-Nov-12 04:27N 34°03' W 120°21'0 0.0
2017-Nov-12 04:00N 34°03' W 120°21'0 0.0
2017-Nov-12 03:30N 34°03' W 120°21'0 0.0
2017-Nov-12 02:57N 34°03' W 120°21'0 0.0
2017-Nov-12 02:30N 34°03' W 120°21'0 0.1
2017-Nov-12 02:00N 34°03' W 120°21'0 0.1
2017-Nov-12 01:30N 34°03' W 120°21'0 0.0
2017-Nov-12 00:57N 34°03' W 120°21'0 0.0
2017-Nov-12 00:24N 34°03' W 120°21'0 0.5
2017-Nov-11 23:57N 34°03' W 120°21'0 0.0
2017-Nov-11 23:15N 34°03' W 120°21'0 0.0
2017-Nov-11 22:57N 34°03' W 120°21'0 0.0
2017-Nov-11 22:21N 34°03' W 120°21'0 0.1
2017-Nov-11 21:54N 34°03' W 120°21'0 0.1
2017-Nov-11 21:30N 34°03' W 120°21'0 0.0
2017-Nov-11 20:57N 34°03' W 120°21'0 0.1
2017-Nov-11 20:30N 34°03' W 120°21'0 0.1
2017-Nov-11 19:57N 34°03' W 120°21'0 0.0
2017-Nov-11 19:29N 34°03' W 120°21'0 0.0
2017-Nov-11 18:59N 34°03' W 120°21'0 0.0
2017-Nov-11 16:06N 34°03' W 120°21'0 0.5
2017-Nov-11 15:58N 34°03' W 120°21'1 1.7
2017-Nov-11 15:30N 34°04' W 120°21'2 3.2
2017-Nov-11 15:00N 34°03' W 120°20'5 9.4
2017-Nov-11 14:30N 34°03' W 120°14'5 9.6
2017-Nov-11 14:00N 34°03' W 120°08'5 9.5
2017-Nov-11 13:30N 34°03' W 120°02'2 4.1
2017-Nov-11 12:55N 34°01' W 120°03'0 0.0
2017-Nov-11 12:25N 34°01' W 120°03'0 0.0
2017-Nov-11 11:43N 34°01' W 120°03'0 0.0
2017-Nov-11 11:25N 34°01' W 120°03'0 0.0
2017-Nov-11 10:52N 34°01' W 120°03'0 0.0
2017-Nov-11 10:22N 34°01' W 120°03'0 0.0
2017-Nov-11 09:55N 34°01' W 120°03'0 0.0
2017-Nov-11 09:28N 34°01' W 120°03'0 0.0
2017-Nov-11 08:55N 34°01' W 120°03'0 0.0
2017-Nov-11 08:22N 34°01' W 120°03'0 0.0
2017-Nov-11 07:49N 34°01' W 120°03'0 0.1
2017-Nov-11 07:28N 34°01' W 120°03'0 0.0
2017-Nov-11 06:55N 34°01' W 120°03'0 0.0
2017-Nov-11 06:28N 34°01' W 120°03'0 0.0
2017-Nov-11 05:55N 34°01' W 120°03'0 0.1
2017-Nov-11 05:25N 34°01' W 120°03'0 0.1
2017-Nov-11 04:58N 34°01' W 120°03'0 0.0
2017-Nov-11 04:25N 34°01' W 120°03'0 0.0
2017-Nov-11 03:55N 34°01' W 120°03'0 0.0
2017-Nov-11 03:22N 34°01' W 120°03'0 0.0
2017-Nov-11 02:52N 34°01' W 120°03'0 0.0
2017-Nov-11 02:25N 34°01' W 120°03'0 0.0
2017-Nov-11 01:55N 34°01' W 120°03'0 0.0
2017-Nov-11 01:25N 34°01' W 120°03'0 0.0
2017-Nov-11 00:52N 34°01' W 120°03'0 0.0
2017-Nov-11 00:28N 34°01' W 120°03'0 0.0
2017-Nov-10 23:55N 34°01' W 120°03'0 0.0
2017-Nov-10 23:25N 34°01' W 120°03'0 0.0
2017-Nov-10 22:58N 34°01' W 120°03'0 0.0
2017-Nov-10 22:28N 34°01' W 120°03'0 0.0
2017-Nov-10 21:49N 34°01' W 120°03'0 0.0
2017-Nov-10 21:25N 34°01' W 120°03'0 0.1
2017-Nov-10 20:58N 34°01' W 120°03'0 0.0
2017-Nov-10 20:28N 34°01' W 120°03'0 0.1
2017-Nov-10 19:55N 34°01' W 120°03'0 0.1
2017-Nov-10 19:28N 34°01' W 120°03'0 0.0
2017-Nov-10 18:55N 34°01' W 120°03'0 0.1
2017-Nov-10 18:28N 34°01' W 120°03'0 0.0
2017-Nov-10 17:58N 34°01' W 120°03'0 0.0
2017-Nov-10 17:28N 34°01' W 120°03'0 0.0
2017-Nov-10 16:58N 34°01' W 120°03'0 0.0
2017-Nov-10 16:28N 34°01' W 120°03'2 4.7
2017-Nov-10 15:59N 33°59' W 120°01'4 8.2
2017-Nov-10 15:30N 34°03' W 120°01'5 9.9
2017-Nov-10 15:00N 34°08' W 120°01'4 7.1
2017-Nov-10 14:29N 34°11' W 119°59'5 9.3
2017-Nov-10 13:59N 34°12' W 119°54'7 9.4
2017-Nov-10 13:17N 34°17' W 119°48'3 9.8
2017-Nov-10 12:58N 34°19' W 119°45'  
Track history (hours):
 
Tides and Currents Weather Stations Pressure Air Temp Water Temp Dewpoint Dewpoint Depression Visibility Wind Speed Wind Dir Waves Ship Positions

Conception

Owner: TRUTH AQUATICS, SANTA BARBARA, CA. More information available from US FCC via Universal Licensing System and Coast Guard Vessel Documentation Center.

Last reported at 2017-Nov-20 00:23 UTC. Time now 2017-Nov-21 06:09 UTC.
Position N 34°23' W 119°41'.

Length 24 m.

Type: Diving. MMSI: 367098480.

Date/timePositionNaut miles runAvg speedWind from/ knotsBaromVisibWave heightAir tempDewpointWater temp
2017-Nov-20 00:23N 34°23' W 119°41'4 9.7
2017-Nov-19 23:59N 34°20' W 119°42'5 9.7
2017-Nov-19 23:28N 34°15' W 119°44'5 9.6
2017-Nov-19 22:56N 34°10' W 119°46'4 9.5
2017-Nov-19 22:30N 34°06' W 119°48'3 0.5
2017-Nov-19 16:04N 34°03' W 119°49'0 0.0
2017-Nov-19 15:37N 34°03' W 119°49'0 0.0
2017-Nov-19 15:15N 34°03' W 119°49'1 4.0
2017-Nov-19 14:59N 34°04' W 119°48'2 1.4
2017-Nov-19 13:26N 34°03' W 119°45'0 0.0
2017-Nov-19 12:08N 34°03' W 119°45'0 0.0
2017-Nov-19 11:59N 34°03' W 119°45'0 0.0
2017-Nov-19 11:23N 34°03' W 119°45'0 0.0
2017-Nov-19 10:59N 34°03' W 119°45'0 0.0
2017-Nov-18 22:25N 34°03' W 119°45'3 4.5
2017-Nov-18 21:47N 34°02' W 119°42'0 0.0
2017-Nov-18 20:34N 34°02' W 119°42'0 0.0
2017-Nov-18 20:31N 34°02' W 119°42'0 0.0
2017-Nov-18 19:46N 34°02' W 119°42'0 0.0
2017-Nov-18 18:12N 34°02' W 119°42'0 0.0
2017-Nov-18 17:57N 34°02' W 119°42'0 0.0
2017-Nov-18 17:28N 34°02' W 119°42'0 0.0
2017-Nov-18 16:54N 34°02' W 119°42'0 0.0
2017-Nov-18 16:27N 34°02' W 119°42'0 0.0
2017-Nov-18 16:00N 34°02' W 119°42'2 3.3
2017-Nov-18 15:28N 34°03' W 119°44'4 7.6
2017-Nov-18 14:58N 34°03' W 119°49'2 5.4
2017-Nov-18 14:30N 34°05' W 119°51'5 7.7
2017-Nov-18 13:54N 34°10' W 119°50'5 9.2
2017-Nov-18 13:23N 34°14' W 119°46'4 9.8
2017-Nov-18 13:00N 34°17' W 119°43'5 9.7
2017-Nov-18 12:30N 34°21' W 119°41'3 0.5
2017-Nov-18 05:07N 34°24' W 119°41'0 0.0
2017-Nov-18 04:43N 34°24' W 119°41'0 0.0
2017-Nov-18 04:19N 34°24' W 119°41'0 0.0
2017-Nov-17 23:34N 34°24' W 119°41'0 0.0
2017-Nov-17 23:25N 34°24' W 119°41'0 0.0
2017-Nov-17 21:46N 34°24' W 119°41'0 0.0
2017-Nov-17 12:13N 34°24' W 119°41'0 0.0
2017-Nov-17 10:28N 34°24' W 119°41'0 0.0
2017-Nov-17 05:52N 34°24' W 119°41'0 0.0
2017-Nov-17 03:31N 34°24' W 119°41'0 0.0
2017-Nov-17 00:46N 34°24' W 119°41'0 0.0
2017-Nov-16 23:13N 34°24' W 119°41'0 0.0
2017-Nov-16 19:49N 34°24' W 119°41'0 0.0
2017-Nov-16 19:22N 34°24' W 119°41'0 0.0
2017-Nov-16 17:58N 34°24' W 119°41'0 0.0
2017-Nov-16 17:16N 34°24' W 119°41'0 0.0
2017-Nov-16 16:52N 34°24' W 119°41'0 0.0
2017-Nov-16 16:25N 34°24' W 119°41'0 0.0
2017-Nov-16 15:46N 34°24' W 119°41'0 0.0
2017-Nov-16 15:28N 34°24' W 119°41'0 0.0
2017-Nov-16 13:22N 34°24' W 119°41'0 0.0
2017-Nov-16 11:55N 34°24' W 119°41'0 0.0
2017-Nov-16 11:31N 34°24' W 119°41'0 0.0
2017-Nov-16 08:25N 34°24' W 119°41'0 0.0
2017-Nov-16 07:39N 34°24' W 119°41'0 0.0
2017-Nov-16 07:18N 34°24' W 119°41'0 0.0
2017-Nov-16 06:36N 34°24' W 119°41'0 0.0
2017-Nov-16 06:18N 34°24' W 119°41'0 0.0
2017-Nov-16 05:55N 34°24' W 119°41'0 0.0
2017-Nov-16 05:24N 34°24' W 119°41'0 0.0
2017-Nov-16 04:54N 34°24' W 119°41'0 0.0
2017-Nov-16 03:00N 34°24' W 119°41'0 0.0
2017-Nov-15 23:45N 34°24' W 119°41'0 0.0
2017-Nov-15 23:24N 34°24' W 119°41'0 0.0
2017-Nov-15 22:54N 34°24' W 119°41'0 0.0
2017-Nov-15 21:45N 34°24' W 119°41'0 0.0
2017-Nov-15 21:21N 34°24' W 119°41'0 0.0
2017-Nov-15 20:54N 34°24' W 119°41'0 0.0
2017-Nov-15 20:27N 34°24' W 119°41'0 0.0
2017-Nov-15 18:54N 34°24' W 119°41'0 0.0
2017-Nov-15 15:21N 34°24' W 119°41'0 0.0
2017-Nov-15 14:57N 34°24' W 119°41'0 0.0
2017-Nov-15 12:03N 34°24' W 119°41'0 0.0
2017-Nov-15 12:00N 34°24' W 119°41'0 0.0
2017-Nov-15 11:15N 34°24' W 119°41'0 0.0
2017-Nov-15 11:00N 34°24' W 119°41'0 0.0
2017-Nov-15 10:30N 34°24' W 119°41'0 0.0
2017-Nov-15 09:54N 34°24' W 119°41'0 0.0
2017-Nov-15 09:30N 34°24' W 119°41'0 0.0
2017-Nov-15 07:57N 34°24' W 119°41'0 0.0
2017-Nov-15 07:30N 34°24' W 119°41'0 0.0
2017-Nov-15 06:57N 34°24' W 119°41'0 0.0
2017-Nov-14 21:27N 34°24' W 119°41'0 0.0
2017-Nov-14 20:42N 34°24' W 119°41'0 0.0
2017-Nov-14 16:45N 34°24' W 119°41'0 0.0
2017-Nov-14 10:42N 34°24' W 119°41'0 0.0
2017-Nov-14 02:39N 34°24' W 119°41'0 0.0
2017-Nov-13 23:33N 34°24' W 119°41'0 0.0
2017-Nov-13 23:09N 34°24' W 119°41'0 0.0
2017-Nov-13 21:36N 34°24' W 119°41'0 0.0
2017-Nov-13 01:21N 34°24' W 119°41'0 0.0
2017-Nov-13 00:51N 34°24' W 119°41'8 6.7
2017-Nov-12 23:42N 34°17' W 119°42'210.7
2017-Nov-12 23:29N 34°14' W 119°43'610.8
2017-Nov-12 22:57N 34°09' W 119°44'6 8.6
2017-Nov-12 22:17N 34°03' W 119°45'1 5.0
2017-Nov-12 22:00N 34°03' W 119°44'2 4.4
2017-Nov-12 21:30N 34°02' W 119°41'0 0.5
2017-Nov-12 20:58N 34°01' W 119°41'0 0.0
2017-Nov-12 20:28N 34°01' W 119°41'0 0.0
2017-Nov-12 19:46N 34°01' W 119°41'0 0.0
2017-Nov-12 19:28N 34°01' W 119°41'0 0.0
2017-Nov-12 18:55N 34°01' W 119°41'0 0.0
2017-Nov-12 18:28N 34°01' W 119°41'0 0.0
2017-Nov-12 17:52N 34°01' W 119°41'0 0.0
2017-Nov-12 17:28N 34°01' W 119°41'0 0.0
2017-Nov-12 16:55N 34°01' W 119°41'0 0.0
2017-Nov-12 16:25N 34°01' W 119°41'0 0.0
2017-Nov-12 16:00N 34°01' W 119°41'1 2.4
2017-Nov-12 15:30N 34°02' W 119°42'5 9.6
2017-Nov-12 15:00N 34°04' W 119°48'510.5
2017-Nov-12 14:30N 34°05' W 119°54'510.3
2017-Nov-12 14:01N 34°04' W 120°00'510.6
2017-Nov-12 13:30N 34°04' W 120°06'510.2
2017-Nov-12 13:00N 34°04' W 120°13'510.2
2017-Nov-12 12:30N 34°04' W 120°19'2 4.0
2017-Nov-12 11:57N 34°03' W 120°21'0 0.1
2017-Nov-12 11:27N 34°03' W 120°21'0 0.1
2017-Nov-12 10:51N 34°03' W 120°21'0 0.1
2017-Nov-12 10:30N 34°03' W 120°21'0 0.0
2017-Nov-12 10:00N 34°03' W 120°21'0 0.0
2017-Nov-12 09:27N 34°03' W 120°21'0 0.0
2017-Nov-12 09:00N 34°03' W 120°21'0 0.1
2017-Nov-12 08:30N 34°03' W 120°21'0 0.0
2017-Nov-12 07:54N 34°03' W 120°21'0 0.1
2017-Nov-12 07:30N 34°03' W 120°21'0 0.0
2017-Nov-12 06:57N 34°03' W 120°21'0 0.0
2017-Nov-12 06:30N 34°03' W 120°21'0 0.1
2017-Nov-12 05:54N 34°03' W 120°21'0 0.1
2017-Nov-12 05:27N 34°03' W 120°21'0 0.0
2017-Nov-12 05:00N 34°03' W 120°21'0 0.0
2017-Nov-12 04:27N 34°03' W 120°21'0 0.0
2017-Nov-12 04:00N 34°03' W 120°21'0 0.0
2017-Nov-12 03:30N 34°03' W 120°21'0 0.0
2017-Nov-12 02:57N 34°03' W 120°21'0 0.0
2017-Nov-12 02:30N 34°03' W 120°21'0 0.1
2017-Nov-12 02:00N 34°03' W 120°21'0 0.1
2017-Nov-12 01:30N 34°03' W 120°21'0 0.0
2017-Nov-12 00:57N 34°03' W 120°21'0 0.0
2017-Nov-12 00:24N 34°03' W 120°21'0 0.5
2017-Nov-11 23:57N 34°03' W 120°21'0 0.0
2017-Nov-11 23:15N 34°03' W 120°21'0 0.0
2017-Nov-11 22:57N 34°03' W 120°21'0 0.0
2017-Nov-11 22:21N 34°03' W 120°21'0 0.1
2017-Nov-11 21:54N 34°03' W 120°21'0 0.1
2017-Nov-11 21:30N 34°03' W 120°21'0 0.0
2017-Nov-11 20:57N 34°03' W 120°21'0 0.1
2017-Nov-11 20:30N 34°03' W 120°21'0 0.1
2017-Nov-11 19:57N 34°03' W 120°21'0 0.0
2017-Nov-11 19:29N 34°03' W 120°21'0 0.0
2017-Nov-11 18:59N 34°03' W 120°21'0 0.0
2017-Nov-11 16:06N 34°03' W 120°21'0 0.5
2017-Nov-11 15:58N 34°03' W 120°21'1 1.7
2017-Nov-11 15:30N 34°04' W 120°21'2 3.2
2017-Nov-11 15:00N 34°03' W 120°20'5 9.4
2017-Nov-11 14:30N 34°03' W 120°14'5 9.6
2017-Nov-11 14:00N 34°03' W 120°08'5 9.5
2017-Nov-11 13:30N 34°03' W 120°02'2 4.1
2017-Nov-11 12:55N 34°01' W 120°03'0 0.0
2017-Nov-11 12:25N 34°01' W 120°03'0 0.0
2017-Nov-11 11:43N 34°01' W 120°03'0 0.0
2017-Nov-11 11:25N 34°01' W 120°03'0 0.0
2017-Nov-11 10:52N 34°01' W 120°03'0 0.0
2017-Nov-11 10:22N 34°01' W 120°03'0 0.0
2017-Nov-11 09:55N 34°01' W 120°03'0 0.0
2017-Nov-11 09:28N 34°01' W 120°03'0 0.0
2017-Nov-11 08:55N 34°01' W 120°03'0 0.0
2017-Nov-11 08:22N 34°01' W 120°03'0 0.0
2017-Nov-11 07:49N 34°01' W 120°03'0 0.1
2017-Nov-11 07:28N 34°01' W 120°03'0 0.0
2017-Nov-11 06:55N 34°01' W 120°03'0 0.0
2017-Nov-11 06:28N 34°01' W 120°03'0 0.0
2017-Nov-11 05:55N 34°01' W 120°03'0 0.1
2017-Nov-11 05:25N 34°01' W 120°03'0 0.1
2017-Nov-11 04:58N 34°01' W 120°03'0 0.0
2017-Nov-11 04:25N 34°01' W 120°03'0 0.0
2017-Nov-11 03:55N 34°01' W 120°03'0 0.0
2017-Nov-11 03:22N 34°01' W 120°03'0 0.0
2017-Nov-11 02:52N 34°01' W 120°03'0 0.0
2017-Nov-11 02:25N 34°01' W 120°03'0 0.0
2017-Nov-11 01:55N 34°01' W 120°03'0 0.0
2017-Nov-11 01:25N 34°01' W 120°03'0 0.0
2017-Nov-11 00:52N 34°01' W 120°03'0 0.0
2017-Nov-11 00:28N 34°01' W 120°03'0 0.0
2017-Nov-10 23:55N 34°01' W 120°03'0 0.0
2017-Nov-10 23:25N 34°01' W 120°03'0 0.0
2017-Nov-10 22:58N 34°01' W 120°03'0 0.0
2017-Nov-10 22:28N 34°01' W 120°03'0 0.0
2017-Nov-10 21:49N 34°01' W 120°03'0 0.0
2017-Nov-10 21:25N 34°01' W 120°03'0 0.1
2017-Nov-10 20:58N 34°01' W 120°03'0 0.0
2017-Nov-10 20:28N 34°01' W 120°03'0 0.1
2017-Nov-10 19:55N 34°01' W 120°03'0 0.1
2017-Nov-10 19:28N 34°01' W 120°03'0 0.0
2017-Nov-10 18:55N 34°01' W 120°03'0 0.1
2017-Nov-10 18:28N 34°01' W 120°03'0 0.0
2017-Nov-10 17:58N 34°01' W 120°03'0 0.0
2017-Nov-10 17:28N 34°01' W 120°03'0 0.0
2017-Nov-10 16:58N 34°01' W 120°03'0 0.0
2017-Nov-10 16:28N 34°01' W 120°03'2 4.7
2017-Nov-10 15:59N 33°59' W 120°01'4 8.2
2017-Nov-10 15:30N 34°03' W 120°01'5 9.9
2017-Nov-10 15:00N 34°08' W 120°01'4 7.1
2017-Nov-10 14:29N 34°11' W 119°59'5 9.3
2017-Nov-10 13:59N 34°12' W 119°54'7 9.4
2017-Nov-10 13:17N 34°17' W 119°48'3 9.8
2017-Nov-10 12:58N 34°19' W 119°45'  

Dump ship's entire track history